createdAt,value
2019-05-23T00:02:15.829Z,99.90
2019-05-23T00:04:50.245Z,99.90
2019-05-23T00:07:21.178Z,99.90
2019-05-23T00:09:51.360Z,99.90
2019-05-23T00:12:45.797Z,99.90
2019-05-23T00:15:23.774Z,99.90
2019-05-23T00:17:53.528Z,99.90
2019-05-23T00:20:25.158Z,99.90
2019-05-23T00:22:54.540Z,99.90
2019-05-23T00:25:24.748Z,99.90
2019-05-23T00:27:55.767Z,99.90
2019-05-23T00:30:45.278Z,99.90
2019-05-23T00:33:18.106Z,99.90
2019-05-23T00:35:47.872Z,99.90
2019-05-23T00:38:17.799Z,99.90
2019-05-23T00:40:48.418Z,99.90
2019-05-23T00:43:18.128Z,99.90
2019-05-23T00:45:47.742Z,99.90
2019-05-23T00:48:17.352Z,99.90
2019-05-23T00:50:48.922Z,99.90
2019-05-23T00:53:18.402Z,99.90
2019-05-23T00:55:48.364Z,99.90
2019-05-23T00:58:19.205Z,99.90
2019-05-23T01:00:51.042Z,99.90
2019-05-23T01:03:21.363Z,99.90
2019-05-23T01:05:51.597Z,99.90
2019-05-23T01:08:21.678Z,99.90
2019-05-23T01:10:52.145Z,99.90
2019-05-23T01:13:23.350Z,99.90
2019-05-23T01:15:55.102Z,99.90
2019-05-23T01:18:26.076Z,99.90
2019-05-23T01:21:29.850Z,99.90
2019-05-23T01:24:08.364Z,99.90
2019-05-23T01:26:37.870Z,99.90
2019-05-23T01:29:07.514Z,99.90
2019-05-23T01:31:39.155Z,99.90
2019-05-23T01:34:11.682Z,99.90
2019-05-23T01:36:42.292Z,99.90
2019-05-23T01:39:12.069Z,99.90
2019-05-23T01:41:42.325Z,99.90
2019-05-23T01:44:13.989Z,99.90
2019-05-23T01:46:43.838Z,99.90
2019-05-23T01:49:13.527Z,99.90
2019-05-23T01:51:42.930Z,99.90
2019-05-23T01:54:14.135Z,99.90
2019-05-23T01:56:44.735Z,99.90
2019-05-23T01:59:14.423Z,99.90
2019-05-23T02:01:44.115Z,99.90
2019-05-23T02:04:13.399Z,99.90
2019-05-23T02:06:42.873Z,99.90
2019-05-23T02:09:14.186Z,99.90
2019-05-23T02:11:43.735Z,99.90
2019-05-23T02:14:14.612Z,99.90
2019-05-23T02:16:44.433Z,99.90
2019-05-23T02:19:14.001Z,99.90
2019-05-23T02:21:44.918Z,99.90
2019-05-23T02:24:14.569Z,99.90
2019-05-23T02:26:44.547Z,99.90
2019-05-23T02:29:14.503Z,99.90
2019-05-23T02:31:45.455Z,99.90
2019-05-23T02:34:15.358Z,99.90
2019-05-23T02:36:46.198Z,99.90
2019-05-23T02:39:36.074Z,99.90
2019-05-23T02:42:24.342Z,99.90
2019-05-23T02:44:54.711Z,99.90
2019-05-23T02:47:29.766Z,99.90
2019-05-23T02:50:00.164Z,99.90
2019-05-23T02:52:44.647Z,99.90
2019-05-23T02:55:27.556Z,99.90
2019-05-23T02:58:01.142Z,99.90
2019-05-23T03:01:27.983Z,99.90
2019-05-23T03:03:59.677Z,99.90
2019-05-23T03:06:29.895Z,99.90
2019-05-23T03:09:00.135Z,99.90
2019-05-23T03:11:39.851Z,99.90
2019-05-23T03:14:11.787Z,99.90
2019-05-23T03:16:43.878Z,99.90
2019-05-23T03:19:22.165Z,99.90
2019-05-23T03:21:54.594Z,99.90
2019-05-23T03:24:25.047Z,99.90
2019-05-23T03:27:11.351Z,99.90
2019-05-23T03:29:41.000Z,99.90
2019-05-23T03:32:19.613Z,99.90
2019-05-23T03:34:54.975Z,99.90
2019-05-23T03:37:25.016Z,99.90
2019-05-23T03:39:55.193Z,99.90
2019-05-23T03:42:24.518Z,99.90
2019-05-23T03:44:54.842Z,99.90
2019-05-23T03:47:25.480Z,99.90
2019-05-23T03:49:55.301Z,99.90
2019-05-23T03:52:25.481Z,99.90
2019-05-23T03:54:56.691Z,99.90
2019-05-23T03:57:26.415Z,99.90
2019-05-23T03:59:57.030Z,99.90
2019-05-23T04:02:27.001Z,99.90
2019-05-23T04:04:57.270Z,99.90
2019-05-23T04:07:26.482Z,99.90
2019-05-23T04:09:55.635Z,99.90
2019-05-23T04:12:24.942Z,99.90
2019-05-23T04:14:54.390Z,99.90
2019-05-23T04:17:23.696Z,99.90
2019-05-23T04:19:53.447Z,99.90
2019-05-23T04:22:23.370Z,99.90
2019-05-23T04:24:52.804Z,99.90
2019-05-23T04:27:22.237Z,99.90
2019-05-23T04:29:51.464Z,99.90
2019-05-23T04:32:21.150Z,99.90
2019-05-23T04:34:50.840Z,99.90
2019-05-23T04:37:20.171Z,99.90
2019-05-23T04:39:49.351Z,99.90
2019-05-23T04:42:18.855Z,99.90
2019-05-23T04:44:48.303Z,99.90
2019-05-23T04:47:18.920Z,99.90
2019-05-23T04:49:48.464Z,99.90
2019-05-23T04:52:17.826Z,99.90
2019-05-23T04:54:47.198Z,99.90
2019-05-23T04:57:18.239Z,99.90
2019-05-23T04:59:48.391Z,99.90
2019-05-23T05:02:26.364Z,99.90
2019-05-23T05:04:49.549Z,99.90
2019-05-23T05:07:18.956Z,99.90
2019-05-23T05:09:48.440Z,99.90
2019-05-23T05:12:18.340Z,99.90
2019-05-23T05:14:47.950Z,99.90
2019-05-23T05:17:17.419Z,99.90
2019-05-23T05:19:46.914Z,99.90
2019-05-23T05:22:16.442Z,99.90
2019-05-23T05:24:46.408Z,99.90
2019-05-23T05:27:16.357Z,99.90
2019-05-23T05:29:45.544Z,99.90
2019-05-23T05:32:15.736Z,99.90
2019-05-23T05:34:45.253Z,99.90
2019-05-23T05:37:14.519Z,99.90
2019-05-23T05:39:44.079Z,99.90
2019-05-23T05:42:13.570Z,99.90
2019-05-23T05:44:42.877Z,99.90
2019-05-23T05:47:12.534Z,99.90
2019-05-23T05:49:42.465Z,99.90
2019-05-23T05:52:11.839Z,99.90
2019-05-23T05:54:41.071Z,99.90
2019-05-23T05:57:10.723Z,99.90
2019-05-23T05:59:40.062Z,99.90
2019-05-23T06:02:12.525Z,99.90
2019-05-23T06:04:41.877Z,99.90
2019-05-23T06:07:32.799Z,99.90
2019-05-23T06:10:03.425Z,99.90
2019-05-23T06:12:32.733Z,99.90
2019-05-23T06:15:03.466Z,99.90
2019-05-23T06:17:33.782Z,99.90
2019-05-23T06:20:03.223Z,99.90
2019-05-23T06:22:33.612Z,99.90
2019-05-23T06:25:04.633Z,99.90
2019-05-23T06:27:34.816Z,99.90
2019-05-23T06:30:05.846Z,99.90
2019-05-23T06:32:35.640Z,99.90
2019-05-23T06:35:06.114Z,99.90
2019-05-23T06:37:35.622Z,99.90
2019-05-23T06:40:06.624Z,99.90
2019-05-23T06:42:36.369Z,99.90
2019-05-23T06:45:06.289Z,99.90
2019-05-23T06:47:35.779Z,99.90
2019-05-23T06:50:09.590Z,99.90
2019-05-23T06:52:38.869Z,99.90
2019-05-23T06:55:08.405Z,99.90
2019-05-23T06:57:37.763Z,99.90
2019-05-23T07:00:07.333Z,99.90
2019-05-23T07:02:36.541Z,99.90
2019-05-23T07:05:05.917Z,99.90
2019-05-23T07:07:36.415Z,99.90
2019-05-23T07:10:08.863Z,99.90
2019-05-23T07:12:38.466Z,99.90
2019-05-23T07:15:08.774Z,99.90
2019-05-23T07:17:38.766Z,99.90
2019-05-23T07:20:08.785Z,99.90
2019-05-23T07:22:38.036Z,99.90
2019-05-23T07:25:08.373Z,99.90
2019-05-23T07:27:38.126Z,99.90
2019-05-23T07:30:12.618Z,99.90
2019-05-23T07:32:41.937Z,99.90
2019-05-23T07:35:11.677Z,99.90
2019-05-23T07:37:50.962Z,99.90
2019-05-23T07:40:23.211Z,99.90
2019-05-23T07:42:52.846Z,99.90
2019-05-23T07:45:27.433Z,99.90
2019-05-23T07:47:56.819Z,99.90
2019-05-23T07:50:26.472Z,99.90
2019-05-23T07:52:57.971Z,99.90
2019-05-23T07:55:38.009Z,99.90
2019-05-23T07:58:07.298Z,99.90
2019-05-23T08:00:40.464Z,99.90
2019-05-23T08:03:09.929Z,99.90
2019-05-23T08:05:39.736Z,99.90
2019-05-23T08:08:09.254Z,99.90
2019-05-23T08:10:38.866Z,99.90
2019-05-23T08:13:08.038Z,99.90
2019-05-23T08:15:37.400Z,99.90
2019-05-23T08:18:06.707Z,99.90
2019-05-23T08:20:36.047Z,99.90
2019-05-23T08:23:05.197Z,99.90
2019-05-23T08:25:34.974Z,99.90
2019-05-23T08:28:06.188Z,99.90
2019-05-23T08:30:35.757Z,99.90
2019-05-23T08:33:06.880Z,99.90
2019-05-23T08:35:36.714Z,99.90
2019-05-23T08:38:06.510Z,99.90
2019-05-23T08:40:36.389Z,99.90
2019-05-23T08:43:05.906Z,99.90
2019-05-23T08:45:35.152Z,99.90
2019-05-23T08:48:04.842Z,99.90
2019-05-23T08:50:35.144Z,99.90
2019-05-23T08:53:04.509Z,99.90
2019-05-23T08:55:34.463Z,99.90
2019-05-23T08:58:03.884Z,99.90
2019-05-23T09:00:35.332Z,99.90
2019-05-23T09:03:05.820Z,99.90
2019-05-23T09:05:36.920Z,99.90
2019-05-23T09:08:08.333Z,99.90
2019-05-23T09:10:39.383Z,99.90
2019-05-23T09:13:09.645Z,99.90
2019-05-23T09:15:38.867Z,99.90
2019-05-23T09:18:09.291Z,99.90
2019-05-23T09:20:38.768Z,99.90
2019-05-23T09:23:09.006Z,99.90
2019-05-23T09:25:38.253Z,99.90
2019-05-23T09:28:08.007Z,99.90
2019-05-23T09:30:38.123Z,99.90
2019-05-23T09:33:07.759Z,99.90
2019-05-23T09:35:37.312Z,99.90
2019-05-23T09:38:06.779Z,99.90
2019-05-23T09:40:36.626Z,99.90
2019-05-23T09:43:06.277Z,99.90
2019-05-23T09:45:35.644Z,99.90
2019-05-23T09:48:05.052Z,99.90
2019-05-23T09:50:34.553Z,99.90
2019-05-23T09:53:03.978Z,99.90
2019-05-23T09:55:34.889Z,99.90
2019-05-23T09:58:04.364Z,99.90
2019-05-23T10:00:37.523Z,99.90
2019-05-23T10:03:07.140Z,99.90
2019-05-23T10:05:43.294Z,99.90
2019-05-23T10:08:08.136Z,99.90
2019-05-23T10:10:38.017Z,99.90
2019-05-23T10:13:07.618Z,99.90
2019-05-23T10:15:56.086Z,99.90
2019-05-23T10:18:27.490Z,99.90
2019-05-23T10:20:56.748Z,99.90
2019-05-23T10:23:25.930Z,99.40
2019-05-23T10:25:56.800Z,99.30
2019-05-23T10:28:26.186Z,99.40
2019-05-23T10:30:55.444Z,99.90
2019-05-23T10:33:25.282Z,99.90
2019-05-23T10:36:00.461Z,99.90
2019-05-23T10:38:29.161Z,99.90
2019-05-23T10:40:56.825Z,99.90
2019-05-23T10:43:26.114Z,99.90
2019-05-23T10:45:55.674Z,99.90
2019-05-23T10:48:26.158Z,99.90
2019-05-23T10:50:55.523Z,99.90
2019-05-23T10:53:25.275Z,99.90
2019-05-23T10:55:54.596Z,99.50
2019-05-23T10:58:24.586Z,98.90
2019-05-23T11:00:54.980Z,99.00
2019-05-23T11:03:25.649Z,98.10
2019-05-23T11:05:55.558Z,99.80
2019-05-23T11:08:29.022Z,99.60
2019-05-23T11:10:56.976Z,98.40
2019-05-23T11:13:26.448Z,95.70
2019-05-23T11:15:55.710Z,95.10
2019-05-23T11:18:25.337Z,94.90
2019-05-23T11:20:55.378Z,93.60
2019-05-23T11:23:29.258Z,93.40
2019-05-23T11:26:01.085Z,94.20
2019-05-23T11:28:31.585Z,94.90
2019-05-23T11:31:00.960Z,94.00
2019-05-23T11:33:30.278Z,92.00
2019-05-23T11:35:59.858Z,92.90
2019-05-23T11:38:30.116Z,91.50
2019-05-23T11:40:59.809Z,90.40
2019-05-23T11:43:29.043Z,91.60
2019-05-23T11:46:02.139Z,90.70
2019-05-23T11:48:32.062Z,89.60
2019-05-23T11:51:02.098Z,85.30
2019-05-23T11:53:32.396Z,81.90
2019-05-23T11:56:01.708Z,80.30
2019-05-23T11:58:32.741Z,81.10
2019-05-23T12:01:31.544Z,81.10
2019-05-23T12:04:27.054Z,80.00
2019-05-23T12:07:15.559Z,81.60
2019-05-23T12:09:45.157Z,82.70
2019-05-23T12:12:15.441Z,82.00
2019-05-23T12:14:44.675Z,82.00
2019-05-23T12:17:15.625Z,79.50
2019-05-23T12:19:45.035Z,81.90
2019-05-23T12:22:14.549Z,80.00
2019-05-23T12:24:44.107Z,78.90
2019-05-23T12:27:14.337Z,80.10
2019-05-23T12:29:44.665Z,82.20
2019-05-23T12:32:14.537Z,83.20
2019-05-23T12:34:44.155Z,83.70
2019-05-23T12:37:19.071Z,82.70
2019-05-23T12:39:44.472Z,81.20
2019-05-23T12:42:14.017Z,79.30
2019-05-23T12:44:43.843Z,78.80
2019-05-23T12:47:26.551Z,74.60
2019-05-23T12:50:00.685Z,71.00
2019-05-23T12:52:29.854Z,69.00
2019-05-23T12:54:59.142Z,67.70
2019-05-23T12:57:28.761Z,64.00
2019-05-23T12:59:58.666Z,63.40
2019-05-23T13:02:28.600Z,64.20
2019-05-23T13:04:59.315Z,62.80
2019-05-23T13:07:36.431Z,62.70
2019-05-23T13:10:00.368Z,63.00
2019-05-23T13:12:29.707Z,60.20
2019-05-23T13:14:59.595Z,60.30
2019-05-23T13:17:29.217Z,59.50
2019-05-23T13:19:58.447Z,61.30
2019-05-23T13:22:28.119Z,59.70
2019-05-23T13:24:57.708Z,60.60
2019-05-23T13:27:27.006Z,59.60
2019-05-23T13:29:56.250Z,58.90
2019-05-23T13:32:25.708Z,59.00
2019-05-23T13:34:54.922Z,58.40
2019-05-23T13:37:24.402Z,57.70
2019-05-23T13:39:53.570Z,56.70
2019-05-23T13:42:23.166Z,56.30
2019-05-23T13:44:52.553Z,56.40
2019-05-23T13:47:21.798Z,56.80
2019-05-23T13:49:51.302Z,55.90
2019-05-23T13:52:20.537Z,56.70
2019-05-23T13:54:49.799Z,54.70
2019-05-23T13:57:19.223Z,54.70
2019-05-23T13:59:48.406Z,53.10
2019-05-23T14:02:17.590Z,53.20
2019-05-23T14:04:47.525Z,53.50
2019-05-23T14:07:16.778Z,52.40
2019-05-23T14:09:46.108Z,53.00
2019-05-23T14:12:22.666Z,53.10
2019-05-23T14:14:46.841Z,52.80
2019-05-23T14:17:39.451Z,53.20
2019-05-23T14:20:09.004Z,54.90
2019-05-23T14:22:42.625Z,54.50
2019-05-23T14:25:12.058Z,57.00
2019-05-23T14:27:50.528Z,53.90
2019-05-23T14:30:34.946Z,52.10
2019-05-23T14:33:05.959Z,52.30
2019-05-23T14:35:35.367Z,51.60
2019-05-23T14:38:06.449Z,51.90
2019-05-23T14:40:35.912Z,52.80
2019-05-23T14:43:19.079Z,54.40
2019-05-23T14:45:56.412Z,55.50
2019-05-23T14:48:43.435Z,54.70
2019-05-23T14:51:30.150Z,55.90
2019-05-23T14:54:04.289Z,56.50
2019-05-23T14:56:36.221Z,55.70
2019-05-23T14:59:06.005Z,53.50
2019-05-23T15:01:36.546Z,52.10
2019-05-23T15:04:06.635Z,50.90
2019-05-23T15:06:36.141Z,50.70
2019-05-23T15:09:06.948Z,50.70
2019-05-23T15:11:36.676Z,49.90
2019-05-23T15:14:06.498Z,50.50
2019-05-23T15:16:35.802Z,51.40
2019-05-23T15:19:05.155Z,49.10
2019-05-23T15:21:34.464Z,49.60
2019-05-23T15:24:03.998Z,48.90
2019-05-23T15:26:33.707Z,48.90
2019-05-23T15:29:03.422Z,48.20
2019-05-23T15:31:32.598Z,48.40
2019-05-23T15:34:01.905Z,49.30
2019-05-23T15:36:31.130Z,48.20
2019-05-23T15:39:09.300Z,48.90
2019-05-23T15:41:31.523Z,48.30
2019-05-23T15:44:00.738Z,48.60
2019-05-23T15:46:30.070Z,47.40
2019-05-23T15:49:00.229Z,47.10
2019-05-23T15:51:35.387Z,47.10
2019-05-23T15:54:26.749Z,46.20
2019-05-23T15:57:09.934Z,45.50
2019-05-23T15:59:46.895Z,45.20
2019-05-23T16:02:19.886Z,46.00
2019-05-23T16:04:49.958Z,45.40
2019-05-23T16:07:19.532Z,45.80
2019-05-23T16:09:49.329Z,44.60
2019-05-23T16:12:18.901Z,45.60
2019-05-23T16:14:48.658Z,46.80
2019-05-23T16:17:18.058Z,47.10
2019-05-23T16:19:47.432Z,47.10
2019-05-23T16:22:17.073Z,45.30
2019-05-23T16:24:46.679Z,45.70
2019-05-23T16:27:16.334Z,45.80
2019-05-23T16:29:45.633Z,45.10
2019-05-23T16:32:14.856Z,45.20
2019-05-23T16:34:44.212Z,44.80
2019-05-23T16:37:13.701Z,45.00
2019-05-23T16:39:48.215Z,45.40
2019-05-23T16:42:16.035Z,44.90
2019-05-23T16:44:45.365Z,45.10
2019-05-23T16:47:14.797Z,46.10
2019-05-23T16:49:44.277Z,46.60
2019-05-23T16:52:13.605Z,45.90
2019-05-23T16:54:45.369Z,45.40
2019-05-23T16:57:24.766Z,45.00
2019-05-23T16:59:59.576Z,45.20
2019-05-23T17:02:46.798Z,45.20
2019-05-23T17:05:49.930Z,47.80
2019-05-23T17:08:31.720Z,49.30
2019-05-23T17:11:29.556Z,50.70
2019-05-23T17:14:07.283Z,49.80
2019-05-23T17:16:43.027Z,47.60
2019-05-23T17:19:30.900Z,49.00
2019-05-23T17:22:09.700Z,50.00
2019-05-23T17:24:56.442Z,49.20
2019-05-23T17:27:43.357Z,51.60
2019-05-23T17:30:20.856Z,50.50
2019-05-23T17:32:50.143Z,51.30
2019-05-23T17:35:19.439Z,50.90
2019-05-23T17:37:48.701Z,51.90
2019-05-23T17:40:24.760Z,50.90
2019-05-23T17:42:49.351Z,51.00
2019-05-23T17:45:19.974Z,50.00
2019-05-23T17:47:49.261Z,50.10
2019-05-23T17:50:18.592Z,49.70
2019-05-23T17:52:47.892Z,49.40
2019-05-23T17:55:17.139Z,52.20
2019-05-23T17:57:46.579Z,52.30
2019-05-23T18:00:19.933Z,54.80
2019-05-23T18:02:50.273Z,54.20
2019-05-23T18:05:20.062Z,54.30
2019-05-23T18:07:49.419Z,55.70
2019-05-23T18:10:19.220Z,54.40
2019-05-23T18:12:48.919Z,55.10
2019-05-23T18:15:18.627Z,55.60
2019-05-23T18:17:49.502Z,54.90
2019-05-23T18:20:19.474Z,54.00
2019-05-23T18:22:48.975Z,54.20
2019-05-23T18:25:18.339Z,53.50
2019-05-23T18:27:47.974Z,54.10
2019-05-23T18:30:30.559Z,55.00
2019-05-23T18:33:00.758Z,56.50
2019-05-23T18:35:30.986Z,58.10
2019-05-23T18:38:00.999Z,58.30
2019-05-23T18:40:30.537Z,59.40
2019-05-23T18:43:00.830Z,61.00
2019-05-23T18:45:32.131Z,62.80
2019-05-23T18:48:01.631Z,63.80
2019-05-23T18:50:30.983Z,63.60
2019-05-23T18:53:00.543Z,63.30
2019-05-23T18:55:30.158Z,64.00
2019-05-23T18:57:59.603Z,66.30
2019-05-23T19:01:00.206Z,68.00
2019-05-23T19:03:30.473Z,69.00
2019-05-23T19:06:00.044Z,69.90
2019-05-23T19:08:29.530Z,70.70
2019-05-23T19:11:00.148Z,71.00
2019-05-23T19:13:29.709Z,71.80
2019-05-23T19:15:58.979Z,72.40
2019-05-23T19:18:29.862Z,73.50
2019-05-23T19:21:00.598Z,73.90
2019-05-23T19:23:31.728Z,74.90
2019-05-23T19:26:02.475Z,75.60
2019-05-23T19:28:32.687Z,76.80
2019-05-23T19:31:03.318Z,78.20
2019-05-23T19:33:33.100Z,80.00
2019-05-23T19:36:05.486Z,81.90
2019-05-23T19:38:34.895Z,84.10
2019-05-23T19:41:05.082Z,85.90
2019-05-23T19:43:34.797Z,88.50
2019-05-23T19:46:04.468Z,90.70
2019-05-23T19:48:34.106Z,92.60
2019-05-23T19:51:04.667Z,94.50
2019-05-23T19:53:34.426Z,95.30
2019-05-23T19:56:05.538Z,97.40
2019-05-23T19:58:35.087Z,98.70
2019-05-23T20:01:06.685Z,99.90
2019-05-23T20:03:36.376Z,99.90
2019-05-23T20:06:09.388Z,99.90
2019-05-23T20:08:39.643Z,99.90
2019-05-23T20:11:09.617Z,99.90
2019-05-23T20:13:39.829Z,99.90
2019-05-23T20:16:09.290Z,99.90
2019-05-23T20:18:38.697Z,99.90
2019-05-23T20:21:08.374Z,99.90
2019-05-23T20:23:37.990Z,99.90
2019-05-23T20:26:08.492Z,99.90
2019-05-23T20:28:40.069Z,99.90
2019-05-23T20:31:09.626Z,99.90
2019-05-23T20:33:39.912Z,99.90
2019-05-23T20:36:13.083Z,99.90
2019-05-23T20:38:43.025Z,99.90
2019-05-23T20:41:12.564Z,99.90
2019-05-23T20:43:41.809Z,99.90
2019-05-23T20:46:11.694Z,99.90
2019-05-23T20:48:41.548Z,99.90
2019-05-23T20:51:11.579Z,99.90
2019-05-23T20:53:41.280Z,99.90
2019-05-23T20:56:10.771Z,99.90
2019-05-23T20:58:40.045Z,99.90
2019-05-23T21:01:21.215Z,99.90
2019-05-23T21:03:51.917Z,99.90
2019-05-23T21:06:21.275Z,99.90
2019-05-23T21:08:50.991Z,99.90
2019-05-23T21:11:20.321Z,99.90
2019-05-23T21:13:49.996Z,99.90
2019-05-23T21:16:19.732Z,99.90
2019-05-23T21:18:50.374Z,99.90
2019-05-23T21:21:20.132Z,99.90
2019-05-23T21:23:50.069Z,99.90
2019-05-23T21:26:19.362Z,99.90
2019-05-23T21:28:48.984Z,99.90
2019-05-23T21:31:21.969Z,99.90
2019-05-23T21:33:51.371Z,99.90
2019-05-23T21:36:20.599Z,99.90
2019-05-23T21:38:49.937Z,99.90
2019-05-23T21:41:19.283Z,99.90
2019-05-23T21:43:50.094Z,99.90
2019-05-23T21:46:19.333Z,99.90
2019-05-23T21:48:48.611Z,99.90
2019-05-23T21:51:17.786Z,99.90
2019-05-23T21:53:46.947Z,99.90
2019-05-23T21:56:16.245Z,99.90
2019-05-23T21:58:45.600Z,99.90
2019-05-23T22:01:48.013Z,99.90
2019-05-23T22:04:23.526Z,99.90
2019-05-23T22:07:03.143Z,99.90
2019-05-23T22:09:32.578Z,99.90
2019-05-23T22:12:02.194Z,99.90
2019-05-23T22:14:31.682Z,99.90
2019-05-23T22:17:00.936Z,99.90
2019-05-23T22:19:30.134Z,99.90
2019-05-23T22:21:59.329Z,99.90
2019-05-23T22:24:28.713Z,99.90
2019-05-23T22:26:58.378Z,99.90
2019-05-23T22:29:27.933Z,99.90
2019-05-23T22:31:57.915Z,99.90
2019-05-23T22:34:34.278Z,99.90
2019-05-23T22:37:05.177Z,99.90
2019-05-23T22:39:34.705Z,99.90
2019-05-23T22:42:05.918Z,99.90
2019-05-23T22:44:35.332Z,99.90
2019-05-23T22:47:05.128Z,99.90
2019-05-23T22:49:34.371Z,99.90
2019-05-23T22:52:04.108Z,99.90
2019-05-23T22:54:33.345Z,99.90
2019-05-23T22:57:02.623Z,99.90
2019-05-23T22:59:31.946Z,99.90
2019-05-23T23:02:01.304Z,99.90
2019-05-23T23:04:30.792Z,99.90
2019-05-23T23:07:00.425Z,99.90
2019-05-23T23:09:29.811Z,99.90
2019-05-23T23:11:59.308Z,99.90
2019-05-23T23:14:28.828Z,99.90
2019-05-23T23:16:58.328Z,99.90
2019-05-23T23:19:27.564Z,99.90
2019-05-23T23:21:57.303Z,99.90
2019-05-23T23:24:26.570Z,99.90
2019-05-23T23:26:56.738Z,99.90
2019-05-23T23:29:27.525Z,99.90
2019-05-23T23:31:56.994Z,99.90
2019-05-23T23:34:26.617Z,99.90
2019-05-23T23:36:55.937Z,99.90
2019-05-23T23:39:25.361Z,99.90
2019-05-23T23:41:54.876Z,99.90
2019-05-23T23:44:33.697Z,99.90
2019-05-23T23:47:22.507Z,99.90
2019-05-23T23:50:09.330Z,99.90
2019-05-23T23:52:56.320Z,99.90
2019-05-23T23:55:43.266Z,99.90
2019-05-23T23:58:11.669Z,99.90
